Time,TemperatureF,DewpointF,PressureIn,WindDirection,WindDirectionDegrees,WindSpeedMPH,WindSpeedGustMPH,Humidity,HourlyPrecipIn,Conditions,Clouds,dailyrainin,SoftwareType,DateUTC
2013-08-09 00:02:00,68.9,68.5,29.11,NW,315,0.0,2.0,99,0.00,,,0.00,meteohub,2013-08-09 10:02:00,
2013-08-09 00:07:00,68.7,68.4,29.11,NW,315,0.0,0.0,99,0.00,,,0.00,meteohub,2013-08-09 10:07:00,
2013-08-09 00:12:00,68.7,68.4,29.11,NW,315,0.0,0.0,99,0.00,,,0.00,meteohub,2013-08-09 10:12:00,
2013-08-09 00:17:00,68.7,68.4,29.11,NW,315,0.0,0.0,99,0.00,,,0.00,meteohub,2013-08-09 10:17:00,
2013-08-09 00:22:00,68.5,68.2,29.11,NW,315,0.0,0.0,99,0.00,,,0.00,meteohub,2013-08-09 10:22:00,
2013-08-09 00:27:00,68.4,68.0,29.11,NW,315,0.0,0.0,99,0.00,,,0.00,meteohub,2013-08-09 10:27:00,
2013-08-09 00:32:00,68.4,68.0,29.11,NW,315,0.0,0.0,99,0.00,,,0.00,meteohub,2013-08-09 10:32:00,
2013-08-09 00:37:00,68.2,67.8,29.10,NW,315,0.0,0.0,99,0.00,,,0.00,meteohub,2013-08-09 10:37:00,
2013-08-09 00:42:00,68.0,67.6,29.10,NW,315,0.0,0.0,99,0.00,,,0.00,meteohub,2013-08-09 10:42:00,
2013-08-09 00:47:00,68.0,67.6,29.10,NW,315,0.0,0.0,99,0.00,,,0.00,meteohub,2013-08-09 10:47:00,
2013-08-09 00:52:00,67.8,67.5,29.10,NW,315,0.0,0.0,99,0.00,,,0.00,meteohub,2013-08-09 10:52:00,
2013-08-09 00:57:00,67.6,67.3,29.10,NW,315,0.0,0.0,99,0.00,,,0.00,meteohub,2013-08-09 10:57:00,
2013-08-09 01:02:00,67.6,67.3,29.10,NW,315,0.0,0.0,99,0.00,,,0.00,meteohub,2013-08-09 11:02:00,
2013-08-09 01:07:00,67.6,67.3,29.10,NW,315,0.0,0.0,99,0.00,,,0.00,meteohub,2013-08-09 11:07:00,
2013-08-09 01:12:00,67.5,67.1,29.10,NW,315,0.0,0.0,99,0.00,,,0.00,meteohub,2013-08-09 11:12:00,
2013-08-09 01:17:00,67.5,67.1,29.10,NW,315,0.0,0.0,99,0.00,,,0.00,meteohub,2013-08-09 11:17:00,
2013-08-09 01:22:00,67.6,67.3,29.10,NW,315,0.0,0.0,99,0.00,,,0.00,meteohub,2013-08-09 11:22:00,
2013-08-09 01:27:00,67.5,67.1,29.10,NW,315,0.0,0.0,99,0.00,,,0.00,meteohub,2013-08-09 11:27:00,
2013-08-09 01:32:00,67.5,67.1,29.10,NW,315,0.0,0.0,99,0.00,,,0.00,meteohub,2013-08-09 11:32:00,
2013-08-09 01:37:00,67.3,66.9,29.10,NW,315,0.0,0.0,99,0.00,,,0.00,meteohub,2013-08-09 11:37:00,
2013-08-09 01:42:00,67.3,66.9,29.10,NW,315,0.0,0.0,99,0.00,,,0.00,meteohub,2013-08-09 11:42:00,
2013-08-09 01:47:00,67.3,66.9,29.10,NW,315,0.0,0.0,99,0.00,,,0.00,meteohub,2013-08-09 11:47:00,
2013-08-09 01:52:00,67.3,66.9,29.10,NW,315,0.0,0.0,99,0.00,,,0.00,meteohub,2013-08-09 11:52:00,
2013-08-09 01:57:00,67.3,66.9,29.10,NW,315,0.0,0.0,99,0.00,,,0.00,meteohub,2013-08-09 11:57:00,
2013-08-09 02:02:00,67.3,66.9,29.09,NW,315,0.0,0.0,99,0.00,,,0.00,meteohub,2013-08-09 12:02:00,
2013-08-09 02:07:00,67.3,66.9,29.10,NW,315,0.0,0.0,99,0.00,,,0.00,meteohub,2013-08-09 12:07:00,
2013-08-09 02:12:00,67.3,66.9,29.10,NW,315,0.0,0.0,99,0.00,,,0.00,meteohub,2013-08-09 12:12:00,
2013-08-09 02:17:00,67.3,66.9,29.09,NW,315,0.0,0.0,99,0.00,,,0.00,meteohub,2013-08-09 12:17:00,
2013-08-09 02:21:00,67.1,66.7,29.09,NW,315,0.0,0.0,99,0.00,,,0.00,meteohub,2013-08-09 12:21:00,
2013-08-09 02:27:00,66.7,66.4,29.09,NW,315,0.0,0.0,99,0.00,,,0.00,meteohub,2013-08-09 12:27:00,
2013-08-09 02:32:00,66.6,66.2,29.09,NW,315,0.0,0.0,99,0.00,,,0.00,meteohub,2013-08-09 12:32:00,
2013-08-09 02:37:00,66.4,66.0,29.09,NW,315,0.0,0.0,99,0.00,,,0.00,meteohub,2013-08-09 12:37:00,
2013-08-09 02:42:00,66.2,65.8,29.08,NW,315,0.0,0.0,99,0.00,,,0.00,meteohub,2013-08-09 12:42:00,
2013-08-09 02:47:00,66.0,65.7,29.08,NW,315,0.0,0.0,99,0.00,,,0.00,meteohub,2013-08-09 12:47:00,
2013-08-09 02:52:00,65.8,65.5,29.08,NW,315,0.0,0.0,99,0.00,,,0.00,meteohub,2013-08-09 12:52:00,
2013-08-09 02:57:00,65.7,65.3,29.08,NW,315,0.0,0.0,99,0.00,,,0.00,meteohub,2013-08-09 12:57:00,
2013-08-09 03:02:00,65.5,65.1,29.08,NW,315,0.0,0.0,99,0.00,,,0.00,meteohub,2013-08-09 13:02:00,
2013-08-09 03:07:00,65.3,64.9,29.07,NW,315,0.0,0.0,99,0.00,,,0.00,meteohub,2013-08-09 13:07:00,
2013-08-09 03:12:00,65.3,64.9,29.07,NW,315,0.0,0.0,99,0.00,,,0.00,meteohub,2013-08-09 13:12:00,
2013-08-09 03:17:00,65.1,64.8,29.08,NW,315,0.0,0.0,99,0.00,,,0.00,meteohub,2013-08-09 13:17:00,
2013-08-09 03:22:00,65.1,64.8,29.08,NW,315,0.0,0.0,99,0.00,,,0.00,meteohub,2013-08-09 13:22:00,
2013-08-09 03:26:00,64.9,64.6,29.07,NW,315,0.0,0.0,99,0.00,,,0.00,meteohub,2013-08-09 13:26:00,
2013-08-09 03:32:00,64.8,64.4,29.07,NW,315,0.0,0.0,99,0.00,,,0.00,meteohub,2013-08-09 13:32:00,
2013-08-09 03:37:00,64.8,64.4,29.07,NW,315,0.0,0.0,99,0.00,,,0.00,meteohub,2013-08-09 13:37:00,
2013-08-09 03:42:00,64.6,64.2,29.07,NW,315,0.0,0.0,99,0.00,,,0.00,meteohub,2013-08-09 13:42:00,
2013-08-09 03:47:00,64.8,64.4,29.07,NW,315,0.0,0.0,99,0.00,,,0.00,meteohub,2013-08-09 13:47:00,
2013-08-09 03:52:00,64.9,64.6,29.07,NW,315,1.0,0.0,99,0.00,,,0.00,meteohub,2013-08-09 13:52:00,
2013-08-09 03:57:00,65.1,64.8,29.07,NW,315,0.0,1.0,99,0.00,,,0.00,meteohub,2013-08-09 13:57:00,
2013-08-09 04:02:00,65.1,64.8,29.07,NW,315,0.0,1.0,99,0.00,,,0.00,meteohub,2013-08-09 14:02:00,
2013-08-09 04:07:00,65.1,64.8,29.07,NW,315,0.0,1.0,99,0.00,,,0.00,meteohub,2013-08-09 14:07:00,
2013-08-09 04:12:00,65.1,64.8,29.07,East,90,2.0,0.0,99,0.00,,,0.00,meteohub,2013-08-09 14:12:00,
2013-08-09 04:17:00,65.1,64.8,29.08,East,90,0.0,2.0,99,0.00,,,0.00,meteohub,2013-08-09 14:17:00,
2013-08-09 04:22:00,65.3,64.9,29.07,NE,45,2.0,3.0,99,0.00,,,0.00,meteohub,2013-08-09 14:22:00,
2013-08-09 04:27:00,65.3,64.9,29.07,NE,45,0.0,3.0,99,0.00,,,0.00,meteohub,2013-08-09 14:27:00,
2013-08-09 04:32:00,65.1,64.8,29.07,NE,45,1.0,3.0,99,0.00,,,0.00,meteohub,2013-08-09 14:32:00,
2013-08-09 04:37:00,64.9,64.6,29.07,NE,45,0.0,2.0,99,0.00,,,0.00,meteohub,2013-08-09 14:37:00,
2013-08-09 04:42:00,64.6,64.2,29.07,NE,45,0.0,2.0,99,0.00,,,0.00,meteohub,2013-08-09 14:42:00,
2013-08-09 04:47:00,64.6,64.2,29.08,East,90,4.0,4.0,99,0.00,,,0.00,meteohub,2013-08-09 14:47:00,
2013-08-09 04:52:00,64.8,64.4,29.08,NE,45,2.0,4.0,99,0.00,,,0.00,meteohub,2013-08-09 14:52:00,
2013-08-09 04:57:00,64.6,64.2,29.08,NE,45,2.0,4.0,99,0.00,,,0.00,meteohub,2013-08-09 14:57:00,
2013-08-09 05:02:00,64.8,64.4,29.08,NE,45,2.0,4.0,99,0.00,,,0.00,meteohub,2013-08-09 15:02:00,
2013-08-09 05:07:00,64.8,64.4,29.08,NE,45,0.0,2.0,99,0.00,,,0.00,meteohub,2013-08-09 15:07:00,
2013-08-09 05:12:00,64.8,64.4,29.08,East,90,1.0,2.0,99,0.00,,,0.00,meteohub,2013-08-09 15:12:00,
2013-08-09 05:17:00,64.8,64.4,29.08,East,90,0.0,2.0,99,0.00,,,0.00,meteohub,2013-08-09 15:17:00,
2013-08-09 05:22:00,64.9,64.6,29.08,East,90,0.0,2.0,99,0.00,,,0.00,meteohub,2013-08-09 15:22:00,
2013-08-09 05:26:00,64.9,64.6,29.08,East,90,1.0,2.0,99,0.00,,,0.00,meteohub,2013-08-09 15:26:00,
2013-08-09 05:32:00,64.9,64.6,29.08,East,90,2.0,2.0,99,0.00,,,0.00,meteohub,2013-08-09 15:32:00,
2013-08-09 05:36:00,64.9,64.6,29.07,East,90,1.0,2.0,99,0.00,,,0.00,meteohub,2013-08-09 15:36:00,
2013-08-09 05:42:00,64.9,64.6,29.08,East,90,2.0,2.0,99,0.00,,,0.00,meteohub,2013-08-09 15:42:00,
2013-08-09 05:47:00,64.9,64.6,29.08,North,0,1.0,3.0,99,0.00,,,0.00,meteohub,2013-08-09 15:47:00,
2013-08-09 05:52:00,64.9,64.6,29.08,NE,45,2.0,3.0,99,0.00,,,0.00,meteohub,2013-08-09 15:52:00,
2013-08-09 05:57:00,64.9,64.6,29.08,NE,45,1.0,3.0,99,0.00,,,0.00,meteohub,2013-08-09 15:57:00,
2013-08-09 06:02:00,64.8,64.4,29.08,East,90,4.0,4.0,99,0.00,,,0.00,meteohub,2013-08-09 16:02:00,
2013-08-09 06:07:00,64.9,64.6,29.08,East,90,2.0,4.0,99,0.00,,,0.00,meteohub,2013-08-09 16:07:00,
2013-08-09 06:12:00,64.8,64.4,29.09,East,90,0.0,4.0,99,0.00,,,0.00,meteohub,2013-08-09 16:12:00,
2013-08-09 06:17:00,64.8,64.4,29.09,East,90,2.0,4.0,99,0.00,,,0.00,meteohub,2013-08-09 16:17:00,
2013-08-09 06:22:00,64.8,64.4,29.09,East,90,2.0,2.0,99,0.00,,,0.00,meteohub,2013-08-09 16:22:00,
2013-08-09 06:27:00,64.8,64.2,29.09,NE,45,2.0,2.0,98,0.00,,,0.00,meteohub,2013-08-09 16:27:00,
2013-08-09 06:32:00,64.8,64.2,29.09,NE,45,2.0,2.0,98,0.00,,,0.00,meteohub,2013-08-09 16:32:00,
2013-08-09 06:37:00,64.9,64.0,29.10,NE,45,0.0,2.0,97,0.00,,,0.00,meteohub,2013-08-09 16:37:00,
2013-08-09 06:42:00,64.9,63.9,29.10,NE,45,1.0,2.0,96,0.00,,,0.00,meteohub,2013-08-09 16:42:00,
2013-08-09 06:47:00,65.5,64.2,29.10,NE,45,1.0,2.0,96,0.00,,,0.00,meteohub,2013-08-09 16:47:00,
2013-08-09 06:52:00,65.8,64.4,29.10,NE,45,1.0,2.0,95,0.00,,,0.00,meteohub,2013-08-09 16:52:00,
2013-08-09 06:57:00,66.2,64.4,29.10,NE,45,1.0,2.0,94,0.00,,,0.00,meteohub,2013-08-09 16:57:00,
2013-08-09 07:02:00,67.3,64.9,29.10,NE,45,2.0,2.0,92,0.00,,,0.00,meteohub,2013-08-09 17:02:00,
2013-08-09 07:07:00,68.5,65.8,29.10,NE,45,0.0,2.0,91,0.00,,,0.00,meteohub,2013-08-09 17:07:00,
2013-08-09 07:12:00,69.6,65.8,29.10,NE,45,2.0,2.0,88,0.00,,,0.00,meteohub,2013-08-09 17:12:00,
2013-08-09 07:17:00,69.8,65.5,29.10,NE,45,0.0,2.0,86,0.00,,,0.00,meteohub,2013-08-09 17:17:00,
2013-08-09 07:22:00,70.5,66.2,29.10,NE,45,1.0,2.0,86,0.00,,,0.00,meteohub,2013-08-09 17:22:00,
2013-08-09 07:27:00,72.5,67.8,29.10,NE,45,0.0,2.0,85,0.00,,,0.00,meteohub,2013-08-09 17:27:00,
2013-08-09 07:32:00,74.3,68.7,29.10,NE,45,0.0,2.0,83,0.00,,,0.00,meteohub,2013-08-09 17:32:00,
2013-08-09 07:37:00,75.0,68.4,29.10,NE,45,1.0,2.0,80,0.00,,,0.00,meteohub,2013-08-09 17:37:00,
2013-08-09 07:42:00,74.8,67.8,29.10,NE,45,0.0,1.0,79,0.00,,,0.00,meteohub,2013-08-09 17:42:00,
2013-08-09 07:47:00,75.0,68.0,29.10,NE,45,0.0,1.0,79,0.00,,,0.00,meteohub,2013-08-09 17:47:00,
2013-08-09 07:52:00,75.6,68.5,29.11,NE,45,0.0,1.0,79,0.00,,,0.00,meteohub,2013-08-09 17:52:00,
2013-08-09 07:57:00,75.9,68.5,29.10,NE,45,0.0,2.0,78,0.00,,,0.00,meteohub,2013-08-09 17:57:00,
2013-08-09 08:02:00,75.9,67.8,29.10,South,180,2.0,2.0,76,0.00,,,0.00,meteohub,2013-08-09 18:02:00,
2013-08-09 08:07:00,75.0,68.0,29.11,SE,135,3.0,3.0,79,0.00,,,0.00,meteohub,2013-08-09 18:07:00,
2013-08-09 08:12:00,74.7,68.4,29.10,SE,135,2.0,3.0,81,0.00,,,0.00,meteohub,2013-08-09 18:12:00,
2013-08-09 08:17:00,75.2,69.6,29.10,NW,315,2.0,3.0,83,0.00,,,0.00,meteohub,2013-08-09 18:17:00,
2013-08-09 08:22:00,76.3,70.7,29.10,NW,315,1.0,3.0,83,0.00,,,0.00,meteohub,2013-08-09 18:22:00,
2013-08-09 08:27:00,77.2,70.9,29.10,South,180,2.0,2.0,81,0.00,,,0.00,meteohub,2013-08-09 18:27:00,
2013-08-09 08:32:00,78.3,71.6,29.11,East,90,3.0,3.0,80,0.00,,,0.00,meteohub,2013-08-09 18:32:00,
2013-08-09 08:37:00,78.6,71.6,29.10,SE,135,1.0,4.0,79,0.00,,,0.00,meteohub,2013-08-09 18:37:00,
2013-08-09 08:42:00,79.2,71.8,29.10,SE,135,4.0,4.0,78,0.00,,,0.00,meteohub,2013-08-09 18:42:00,
2013-08-09 08:47:00,80.1,72.1,29.10,South,180,2.0,4.0,77,0.00,,,0.00,meteohub,2013-08-09 18:47:00,
2013-08-09 08:52:00,80.4,71.8,29.10,SE,135,2.0,4.0,75,0.00,,,0.00,meteohub,2013-08-09 18:52:00,
2013-08-09 08:57:00,80.6,72.3,29.10,South,180,2.0,4.0,76,0.00,,,0.00,meteohub,2013-08-09 18:57:00,
2013-08-09 09:02:00,79.0,70.3,29.10,NW,315,2.0,3.0,75,0.00,,,0.00,meteohub,2013-08-09 19:02:00,
2013-08-09 09:07:00,80.1,71.8,29.10,South,180,2.0,3.0,76,0.00,,,0.00,meteohub,2013-08-09 19:07:00,
2013-08-09 09:12:00,81.1,72.1,29.10,NW,315,2.0,3.0,74,0.00,,,0.00,meteohub,2013-08-09 19:12:00,
2013-08-09 09:17:00,80.6,70.7,29.09,West,270,5.0,5.0,72,0.00,,,0.00,meteohub,2013-08-09 19:17:00,
2013-08-09 09:22:00,80.8,72.1,29.09,South,180,4.0,5.0,75,0.00,,,0.00,meteohub,2013-08-09 19:22:00,
2013-08-09 09:27:00,81.9,73.2,29.09,South,180,2.0,5.0,75,0.00,,,0.00,meteohub,2013-08-09 19:27:00,
2013-08-09 09:32:00,81.9,72.0,29.09,NW,315,2.0,5.0,72,0.00,,,0.00,meteohub,2013-08-09 19:32:00,
2013-08-09 09:37:00,81.1,70.3,29.09,West,270,2.0,4.0,70,0.00,,,0.00,meteohub,2013-08-09 19:37:00,
2013-08-09 09:42:00,81.5,72.0,29.09,West,270,4.0,4.0,73,0.00,,,0.00,meteohub,2013-08-09 19:42:00,
2013-08-09 09:47:00,79.3,71.1,29.08,West,270,3.0,4.0,76,0.00,,,0.00,meteohub,2013-08-09 19:47:00,
2013-08-09 09:52:00,79.3,72.3,29.08,South,180,2.0,4.0,79,0.00,,,0.00,meteohub,2013-08-09 19:52:00,
2013-08-09 09:57:00,79.2,71.8,29.08,NW,315,3.0,4.0,78,0.00,,,0.00,meteohub,2013-08-09 19:57:00,
2013-08-09 10:02:00,80.1,72.5,29.08,West,270,2.0,4.0,78,0.00,,,0.00,meteohub,2013-08-09 20:02:00,
2013-08-09 10:07:00,79.5,72.1,29.08,West,270,4.0,4.0,78,0.00,,,0.00,meteohub,2013-08-09 20:07:00,
2013-08-09 10:12:00,79.9,72.9,29.07,SE,135,1.0,4.0,79,0.00,,,0.00,meteohub,2013-08-09 20:12:00,
2013-08-09 10:17:00,80.6,72.3,29.07,NW,315,3.0,4.0,76,0.00,,,0.00,meteohub,2013-08-09 20:17:00,
2013-08-09 10:22:00,79.2,70.9,29.07,NW,315,4.0,4.0,76,0.00,,,0.00,meteohub,2013-08-09 20:22:00,
2013-08-09 10:27:00,78.8,71.4,29.07,NW,315,4.0,4.0,78,0.00,,,0.00,meteohub,2013-08-09 20:27:00,
2013-08-09 10:32:00,78.6,71.6,29.07,NW,315,3.0,5.0,79,0.00,,,0.00,meteohub,2013-08-09 20:32:00,
2013-08-09 10:37:00,78.8,71.8,29.07,West,270,3.0,5.0,79,0.00,,,0.00,meteohub,2013-08-09 20:37:00,
2013-08-09 10:42:00,79.0,72.0,29.06,NW,315,3.0,5.0,79,0.00,,,0.00,meteohub,2013-08-09 20:42:00,
2013-08-09 10:47:00,79.9,72.0,29.06,SE,135,4.0,5.0,77,0.00,,,0.00,meteohub,2013-08-09 20:47:00,
2013-08-09 10:52:00,81.0,73.4,29.06,North,0,4.0,4.0,78,0.00,,,0.00,meteohub,2013-08-09 20:52:00,
2013-08-09 10:57:00,82.0,73.8,29.06,West,270,2.0,4.0,76,0.00,,,0.00,meteohub,2013-08-09 20:57:00,
2013-08-09 11:02:00,82.0,73.4,29.06,SW,225,2.0,4.0,75,0.00,,,0.00,meteohub,2013-08-09 21:02:00,
2013-08-09 11:07:00,82.2,72.3,29.06,NW,315,4.0,4.0,72,0.00,,,0.00,meteohub,2013-08-09 21:07:00,
2013-08-09 11:12:00,81.5,72.3,29.06,West,270,2.0,4.0,74,0.00,,,0.00,meteohub,2013-08-09 21:12:00,
2013-08-09 11:17:00,81.9,72.0,29.05,West,270,4.0,7.0,72,0.00,,,0.00,meteohub,2013-08-09 21:17:00,
2013-08-09 11:22:00,82.2,72.3,29.05,SW,225,4.0,7.0,72,0.00,,,0.00,meteohub,2013-08-09 21:22:00,
2013-08-09 11:27:00,81.9,72.0,29.05,NW,315,2.0,7.0,72,0.00,,,0.00,meteohub,2013-08-09 21:27:00,
2013-08-09 11:32:00,82.0,72.1,29.05,NW,315,4.0,7.0,72,0.00,,,0.00,meteohub,2013-08-09 21:32:00,
2013-08-09 11:37:00,80.8,70.5,29.04,North,0,2.0,7.0,71,0.00,,,0.00,meteohub,2013-08-09 21:37:00,
2013-08-09 11:42:00,80.6,71.1,29.05,West,270,4.0,7.0,73,0.00,,,0.00,meteohub,2013-08-09 21:42:00,
2013-08-09 11:47:00,81.0,72.0,29.04,NW,315,2.0,7.0,74,0.00,,,0.00,meteohub,2013-08-09 21:47:00,
2013-08-09 11:52:00,82.6,72.7,29.04,SW,225,2.0,7.0,72,0.00,,,0.00,meteohub,2013-08-09 21:52:00,
2013-08-09 11:57:00,82.6,71.4,29.04,West,270,4.0,7.0,69,0.00,,,0.00,meteohub,2013-08-09 21:57:00,
2013-08-09 12:02:00,83.1,72.0,29.04,SW,225,2.0,6.0,69,0.00,,,0.00,meteohub,2013-08-09 22:02:00,
2013-08-09 12:07:00,82.4,71.6,29.04,West,270,4.0,8.0,70,0.00,,,0.00,meteohub,2013-08-09 22:07:00,
2013-08-09 12:12:00,81.7,70.9,29.04,West,270,2.0,8.0,70,0.00,,,0.00,meteohub,2013-08-09 22:12:00,
2013-08-09 12:17:00,81.3,71.4,29.03,NW,315,5.0,8.0,72,0.00,,,0.00,meteohub,2013-08-09 22:17:00,
2013-08-09 12:22:00,81.5,71.6,29.03,NW,315,2.0,7.0,72,0.00,,,0.00,meteohub,2013-08-09 22:22:00,
2013-08-09 12:27:00,81.5,71.2,29.03,West,270,4.0,5.0,71,0.00,,,0.00,meteohub,2013-08-09 22:27:00,
2013-08-09 12:32:00,81.5,71.6,29.03,West,270,3.0,5.0,72,0.00,,,0.00,meteohub,2013-08-09 22:32:00,
2013-08-09 12:37:00,82.0,71.2,29.03,NW,315,4.0,7.0,70,0.00,,,0.00,meteohub,2013-08-09 22:37:00,
2013-08-09 12:42:00,82.4,71.2,29.03,West,270,6.0,7.0,69,0.00,,,0.00,meteohub,2013-08-09 22:42:00,
2013-08-09 12:47:00,82.0,70.9,29.03,NW,315,4.0,7.0,69,0.00,,,0.00,meteohub,2013-08-09 22:47:00,
2013-08-09 12:52:00,82.0,70.9,29.03,SW,225,2.0,7.0,69,0.00,,,0.00,meteohub,2013-08-09 22:52:00,
2013-08-09 12:57:00,81.7,70.5,29.03,SW,225,4.0,6.0,69,0.00,,,0.00,meteohub,2013-08-09 22:57:00,
2013-08-09 13:02:00,81.7,71.4,29.02,West,270,4.0,6.0,71,0.00,,,0.00,meteohub,2013-08-09 23:02:00,
2013-08-09 13:07:00,82.4,71.6,29.01,West,270,7.0,7.0,70,0.00,,,0.00,meteohub,2013-08-09 23:07:00,
2013-08-09 13:12:00,81.5,70.7,29.02,NW,315,4.0,7.0,70,0.00,,,0.00,meteohub,2013-08-09 23:12:00,
2013-08-09 13:17:00,82.4,72.0,29.01,NW,315,4.0,7.0,71,0.00,,,0.00,meteohub,2013-08-09 23:17:00,
2013-08-09 13:22:00,83.1,72.3,29.02,NW,315,6.0,7.0,70,0.00,,,0.00,meteohub,2013-08-09 23:22:00,
2013-08-09 13:27:00,82.9,72.1,29.01,North,0,4.0,7.0,70,0.00,,,0.00,meteohub,2013-08-09 23:27:00,
2013-08-09 13:32:00,82.8,72.0,29.01,NW,315,4.0,6.0,70,0.00,,,0.00,meteohub,2013-08-09 23:32:00,
2013-08-09 13:37:00,82.2,71.4,29.01,West,270,8.0,8.0,70,0.00,,,0.00,meteohub,2013-08-09 23:37:00,
2013-08-09 13:42:00,81.9,72.0,29.00,SW,225,6.0,8.0,72,0.00,,,0.00,meteohub,2013-08-09 23:42:00,
2013-08-09 13:47:00,82.2,72.0,29.00,West,270,2.0,8.0,71,0.00,,,0.00,meteohub,2013-08-09 23:47:00,
2013-08-09 13:52:00,82.4,71.6,29.00,West,270,7.0,8.0,70,0.00,,,0.00,meteohub,2013-08-09 23:52:00,
2013-08-09 13:57:00,82.0,72.5,29.00,North,0,3.0,9.0,73,0.00,,,0.00,meteohub,2013-08-09 23:57:00,
2013-08-09 14:02:00,83.8,74.3,28.99,SW,225,2.0,9.0,73,0.00,,,0.00,meteohub,2013-08-10 00:02:00,
2013-08-09 14:07:00,83.8,73.0,29.00,SW,225,3.0,9.0,70,0.00,,,0.00,meteohub,2013-08-10 00:07:00,
2013-08-09 14:12:00,83.8,73.0,28.99,NW,315,4.0,5.0,70,0.00,,,0.00,meteohub,2013-08-10 00:12:00,
2013-08-09 14:17:00,83.7,72.0,28.99,West,270,4.0,5.0,68,0.00,,,0.00,meteohub,2013-08-10 00:17:00,
2013-08-09 14:22:00,84.0,73.2,28.99,South,180,3.0,6.0,70,0.00,,,0.00,meteohub,2013-08-10 00:22:00,
2013-08-09 14:27:00,83.8,73.0,28.99,SE,135,4.0,7.0,70,0.00,,,0.00,meteohub,2013-08-10 00:27:00,
2013-08-09 14:32:00,84.0,72.3,28.99,West,270,3.0,7.0,68,0.00,,,0.00,meteohub,2013-08-10 00:32:00,
2013-08-09 14:37:00,83.3,72.1,28.99,NW,315,2.0,7.0,69,0.00,,,0.00,meteohub,2013-08-10 00:37:00,
2013-08-09 14:42:00,83.8,73.0,28.99,South,180,3.0,8.0,70,0.00,,,0.00,meteohub,2013-08-10 00:42:00,
2013-08-09 14:47:00,85.5,73.8,28.98,SW,225,5.0,8.0,68,0.00,,,0.00,meteohub,2013-08-10 00:47:00,
2013-08-09 14:52:00,84.9,74.1,28.98,NW,315,4.0,8.0,70,0.00,,,0.00,meteohub,2013-08-10 00:52:00,
2013-08-09 14:57:00,85.1,72.9,28.99,South,180,3.0,8.0,67,0.00,,,0.00,meteohub,2013-08-10 00:57:00,
2013-08-09 15:02:00,84.2,72.0,28.98,West,270,4.0,8.0,67,0.00,,,0.00,meteohub,2013-08-10 01:02:00,
2013-08-09 15:07:00,84.2,72.9,28.99,SE,135,3.0,6.0,69,0.00,,,0.00,meteohub,2013-08-10 01:07:00,
2013-08-09 15:12:00,83.8,72.1,28.98,West,270,4.0,7.0,68,0.00,,,0.00,meteohub,2013-08-10 01:12:00,
2013-08-09 15:17:00,84.2,72.0,28.99,South,180,3.0,7.0,67,0.00,,,0.00,meteohub,2013-08-10 01:17:00,
2013-08-09 15:22:00,84.6,72.0,28.98,South,180,4.0,7.0,66,0.00,,,0.00,meteohub,2013-08-10 01:22:00,
2013-08-09 15:27:00,85.3,71.2,28.98,NW,315,3.0,5.0,63,0.00,,,0.00,meteohub,2013-08-10 01:27:00,
2013-08-09 15:32:00,85.3,71.8,28.98,South,180,4.0,5.0,64,0.00,,,0.00,meteohub,2013-08-10 01:32:00,
2013-08-09 15:37:00,85.6,72.5,28.99,West,270,2.0,4.0,65,0.00,,,0.00,meteohub,2013-08-10 01:37:00,
2013-08-09 15:42:00,85.8,71.8,28.98,East,90,2.0,4.0,63,0.00,,,0.00,meteohub,2013-08-10 01:42:00,
2013-08-09 15:47:00,85.3,70.7,28.98,NW,315,3.0,6.0,62,0.00,,,0.00,meteohub,2013-08-10 01:47:00,
2013-08-09 15:52:00,84.2,71.2,28.98,West,270,4.0,7.0,65,0.00,,,0.00,meteohub,2013-08-10 01:52:00,
2013-08-09 15:57:00,83.8,70.0,28.98,NE,45,2.0,7.0,63,0.00,,,0.00,meteohub,2013-08-10 01:57:00,
2013-08-09 16:02:00,84.4,70.9,28.98,SW,225,5.0,6.0,64,0.00,,,0.00,meteohub,2013-08-10 02:02:00,
2013-08-09 16:07:00,84.0,72.3,28.98,SW,225,3.0,6.0,68,0.00,,,0.00,meteohub,2013-08-10 02:07:00,
2013-08-09 16:12:00,84.2,71.6,28.97,NW,315,3.0,5.0,66,0.00,,,0.00,meteohub,2013-08-10 02:12:00,
2013-08-09 16:17:00,84.0,71.1,28.97,South,180,5.0,5.0,65,0.00,,,0.00,meteohub,2013-08-10 02:17:00,
2013-08-09 16:22:00,84.9,72.3,28.98,South,180,2.0,6.0,66,0.00,,,0.00,meteohub,2013-08-10 02:22:00,
2013-08-09 16:27:00,84.7,71.2,28.97,NW,315,2.0,6.0,64,0.00,,,0.00,meteohub,2013-08-10 02:27:00,
2013-08-09 16:32:00,82.4,70.7,28.97,West,270,4.0,6.0,68,0.00,,,0.00,meteohub,2013-08-10 02:32:00,
2013-08-09 16:37:00,80.4,70.9,28.98,South,180,4.0,4.0,73,0.00,,,0.00,meteohub,2013-08-10 02:37:00,
2013-08-09 16:42:00,79.7,71.1,28.97,South,180,2.0,4.0,75,0.00,,,0.00,meteohub,2013-08-10 02:42:00,
2013-08-09 16:47:00,80.2,71.6,28.97,SE,135,3.0,5.0,75,0.00,,,0.00,meteohub,2013-08-10 02:47:00,
2013-08-09 16:52:00,81.1,71.6,28.98,South,180,3.0,5.0,73,0.00,,,0.00,meteohub,2013-08-10 02:52:00,
2013-08-09 16:57:00,81.3,71.8,28.98,East,90,4.0,6.0,73,0.00,,,0.00,meteohub,2013-08-10 02:57:00,
2013-08-09 17:02:00,81.3,71.8,28.98,SE,135,6.0,6.0,73,0.00,,,0.00,meteohub,2013-08-10 03:02:00,
2013-08-09 17:07:00,81.1,72.1,28.98,South,180,6.0,6.0,74,0.00,,,0.00,meteohub,2013-08-10 03:07:00,
2013-08-09 17:12:00,81.1,72.1,28.99,SE,135,3.0,7.0,74,0.00,,,0.00,meteohub,2013-08-10 03:12:00,
2013-08-09 17:17:00,80.8,71.8,28.99,SE,135,6.0,7.0,74,0.00,,,0.00,meteohub,2013-08-10 03:17:00,
2013-08-09 17:22:00,79.9,71.2,28.99,SE,135,7.0,7.0,75,0.00,,,0.00,meteohub,2013-08-10 03:22:00,
2013-08-09 17:27:00,80.2,71.6,28.99,South,180,3.0,7.0,75,0.00,,,0.00,meteohub,2013-08-10 03:27:00,
2013-08-09 17:32:00,81.1,71.6,28.99,South,180,2.0,7.0,73,0.00,,,0.00,meteohub,2013-08-10 03:32:00,
2013-08-09 17:37:00,81.1,71.6,28.99,East,90,3.0,7.0,73,0.00,,,0.00,meteohub,2013-08-10 03:37:00,
2013-08-09 17:42:00,80.8,71.2,28.99,South,180,3.0,5.0,73,0.00,,,0.00,meteohub,2013-08-10 03:42:00,
2013-08-09 17:47:00,79.2,70.5,28.99,SE,135,7.0,7.0,75,0.00,,,0.00,meteohub,2013-08-10 03:47:00,
2013-08-09 17:52:00,78.1,70.3,28.99,South,180,4.0,8.0,77,0.00,,,0.00,meteohub,2013-08-10 03:52:00,
2013-08-09 17:57:00,77.7,70.3,28.99,SE,135,4.0,8.0,78,0.00,,,0.00,meteohub,2013-08-10 03:57:00,
2013-08-09 18:01:00,77.5,70.5,28.99,SE,135,2.0,8.0,79,0.00,,,0.00,meteohub,2013-08-10 04:01:00,
2013-08-09 18:07:00,78.3,70.9,28.99,East,90,4.0,6.0,78,0.00,,,0.00,meteohub,2013-08-10 04:07:00,
2013-08-09 18:12:00,78.1,70.7,29.00,SE,135,4.0,6.0,78,0.00,,,0.00,meteohub,2013-08-10 04:12:00,
2013-08-09 18:17:00,77.2,70.5,28.99,SE,135,5.0,7.0,80,0.00,,,0.00,meteohub,2013-08-10 04:17:00,
2013-08-09 18:22:00,76.8,70.5,28.99,South,180,3.0,7.0,81,0.00,,,0.00,meteohub,2013-08-10 04:22:00,
2013-08-09 18:27:00,76.1,70.5,29.00,SE,135,5.0,7.0,83,0.00,,,0.00,meteohub,2013-08-10 04:27:00,
2013-08-09 18:32:00,76.1,70.5,29.00,SE,135,3.0,7.0,83,0.00,,,0.00,meteohub,2013-08-10 04:32:00,
2013-08-09 18:36:00,75.9,70.3,29.00,SE,135,4.0,7.0,83,0.00,,,0.00,meteohub,2013-08-10 04:36:00,
2013-08-09 18:42:00,75.2,68.5,29.00,SE,135,4.0,6.0,80,0.00,,,0.00,meteohub,2013-08-10 04:42:00,
2013-08-09 18:47:00,74.8,69.3,29.00,SE,135,4.0,4.0,83,0.00,,,0.00,meteohub,2013-08-10 04:47:00,
2013-08-09 18:52:00,74.5,68.9,29.00,SE,135,4.0,4.0,83,0.00,,,0.00,meteohub,2013-08-10 04:52:00,
2013-08-09 18:57:00,74.3,69.1,29.00,East,90,3.0,5.0,84,0.00,,,0.00,meteohub,2013-08-10 04:57:00,
2013-08-09 19:02:00,73.9,69.1,29.01,SE,135,4.0,5.0,85,0.00,,,0.00,meteohub,2013-08-10 05:02:00,
2013-08-09 19:07:00,73.8,69.3,29.01,NW,315,3.0,5.0,86,0.00,,,0.00,meteohub,2013-08-10 05:07:00,
2013-08-09 19:12:00,73.8,69.6,29.01,SE,135,4.0,4.0,87,0.00,,,0.00,meteohub,2013-08-10 05:12:00,
2013-08-09 19:17:00,73.6,69.8,29.00,SE,135,4.0,4.0,88,0.00,,,0.00,meteohub,2013-08-10 05:17:00,
2013-08-09 19:22:00,73.6,70.2,29.01,SE,135,2.0,5.0,89,0.00,,,0.00,meteohub,2013-08-10 05:22:00,
2013-08-09 19:27:00,73.4,70.3,29.02,East,90,2.0,5.0,90,0.00,,,0.00,meteohub,2013-08-10 05:27:00,
2013-08-09 19:32:00,73.4,70.9,29.02,SE,135,3.0,5.0,92,0.00,,,0.00,meteohub,2013-08-10 05:32:00,
2013-08-09 19:37:00,73.2,71.1,29.02,SE,135,2.0,5.0,93,0.00,,,0.00,meteohub,2013-08-10 05:37:00,
2013-08-09 19:42:00,73.0,70.9,29.02,SE,135,2.0,5.0,93,0.00,,,0.00,meteohub,2013-08-10 05:42:00,
2013-08-09 19:47:00,73.0,71.2,29.02,SE,135,2.0,4.0,94,0.00,,,0.00,meteohub,2013-08-10 05:47:00,
2013-08-09 19:52:00,73.0,71.6,29.02,SE,135,4.0,4.0,95,0.00,,,0.00,meteohub,2013-08-10 05:52:00,
2013-08-09 19:57:00,72.9,71.4,29.03,SE,135,0.0,4.0,95,0.00,,,0.00,meteohub,2013-08-10 05:57:00,
2013-08-09 20:02:00,72.7,71.8,29.03,SE,135,2.0,4.0,97,0.00,,,0.00,meteohub,2013-08-10 06:02:00,
2013-08-09 20:07:00,72.5,72.1,29.03,SE,135,3.0,4.0,99,0.00,,,0.00,meteohub,2013-08-10 06:07:00,
2013-08-09 20:12:00,72.3,72.0,29.03,SE,135,1.0,4.0,99,0.00,,,0.00,meteohub,2013-08-10 06:12:00,
2013-08-09 20:17:00,72.3,72.0,29.03,East,90,2.0,4.0,99,0.00,,,0.00,meteohub,2013-08-10 06:17:00,
2013-08-09 20:22:00,72.1,71.8,29.03,East,90,0.0,4.0,99,0.00,,,0.00,meteohub,2013-08-10 06:22:00,
2013-08-09 20:27:00,71.8,71.4,29.03,East,90,2.0,3.0,99,0.00,,,0.00,meteohub,2013-08-10 06:27:00,
2013-08-09 20:32:00,71.6,71.2,29.03,East,90,0.0,2.0,99,0.00,,,0.00,meteohub,2013-08-10 06:32:00,
2013-08-09 20:37:00,71.4,71.1,29.03,East,90,0.0,2.0,99,0.00,,,0.00,meteohub,2013-08-10 06:37:00,
2013-08-09 20:42:00,71.2,70.9,29.03,East,90,1.0,2.0,99,0.00,,,0.00,meteohub,2013-08-10 06:42:00,
2013-08-09 20:47:00,71.1,70.7,29.04,East,90,0.0,1.0,99,0.00,,,0.00,meteohub,2013-08-10 06:47:00,
2013-08-09 20:52:00,70.7,70.3,29.04,East,90,0.0,1.0,99,0.00,,,0.00,meteohub,2013-08-10 06:52:00,
2013-08-09 20:56:00,70.5,70.2,29.04,East,90,0.0,1.0,99,0.00,,,0.00,meteohub,2013-08-10 06:56:00,
2013-08-09 21:01:00,70.2,69.8,29.04,East,90,0.0,0.0,99,0.00,,,0.00,meteohub,2013-08-10 07:01:00,
2013-08-09 21:06:00,69.8,69.4,29.04,East,90,0.0,1.0,99,0.00,,,0.00,meteohub,2013-08-10 07:06:00,
2013-08-09 21:12:00,69.6,69.3,29.04,East,90,0.0,1.0,99,0.00,,,0.00,meteohub,2013-08-10 07:12:00,
2013-08-09 21:17:00,69.3,68.9,29.04,East,90,0.0,1.0,99,0.00,,,0.00,meteohub,2013-08-10 07:17:00,
2013-08-09 21:22:00,69.1,68.7,29.04,East,90,0.0,1.0,99,0.00,,,0.00,meteohub,2013-08-10 07:22:00,
2013-08-09 21:27:00,68.9,68.5,29.04,East,90,0.0,1.0,99,0.00,,,0.00,meteohub,2013-08-10 07:27:00,
2013-08-09 21:32:00,68.9,68.5,29.04,East,90,0.0,1.0,99,0.00,,,0.00,meteohub,2013-08-10 07:32:00,
2013-08-09 21:37:00,69.1,68.7,29.05,North,-999,-999.0,0.0,99,0.00,,,0.00,meteohub,2013-08-10 07:37:00,
2013-08-09 21:42:00,68.9,68.5,29.05,North,-999,-999.0,0.0,99,0.00,,,0.00,meteohub,2013-08-10 07:42:00,
2013-08-09 21:47:00,68.9,68.5,29.05,North,-999,-999.0,-999.0,99,0.00,,,0.00,meteohub,2013-08-10 07:47:00,
2013-08-09 21:52:00,68.7,68.4,29.05,North,-999,-999.0,-999.0,99,0.00,,,0.00,meteohub,2013-08-10 07:52:00,
2013-08-09 21:57:00,68.7,68.4,29.05,NE,45,2.0,-999.0,99,0.00,,,0.00,meteohub,2013-08-10 07:57:00,
2013-08-09 22:02:00,68.7,68.2,29.05,NE,45,0.0,2.0,98,0.00,,,0.00,meteohub,2013-08-10 08:02:00,
2013-08-09 22:07:00,68.5,67.3,29.05,NE,45,0.0,2.0,96,0.00,,,0.00,meteohub,2013-08-10 08:07:00,
2013-08-09 22:12:00,68.2,66.7,29.05,NE,45,0.0,2.0,95,0.00,,,0.00,meteohub,2013-08-10 08:12:00,
2013-08-09 22:17:00,68.4,65.7,29.05,NE,45,0.0,0.0,91,0.00,,,0.00,meteohub,2013-08-10 08:17:00,
2013-08-09 22:22:00,68.5,64.8,29.05,NE,45,0.0,0.0,88,0.00,,,0.00,meteohub,2013-08-10 08:22:00,
2013-08-09 22:27:00,68.7,64.4,29.05,NE,45,0.0,0.0,86,0.00,,,0.00,meteohub,2013-08-10 08:27:00,
2013-08-09 22:32:00,68.9,63.5,29.05,NE,45,0.0,1.0,83,0.00,,,0.00,meteohub,2013-08-10 08:32:00,
2013-08-09 22:37:00,68.9,63.1,29.05,NE,45,1.0,2.0,82,0.00,,,0.00,meteohub,2013-08-10 08:37:00,
2013-08-09 22:42:00,68.9,62.4,29.05,NE,45,2.0,2.0,80,0.00,,,0.00,meteohub,2013-08-10 08:42:00,
2013-08-09 22:46:00,68.9,62.1,29.05,NE,45,0.0,2.0,79,0.00,,,0.00,meteohub,2013-08-10 08:46:00,
2013-08-09 22:51:00,68.7,61.9,29.05,NE,45,0.0,2.0,79,0.00,,,0.00,meteohub,2013-08-10 08:51:00,
2013-08-09 22:56:00,68.5,61.7,29.05,NE,45,2.0,2.0,79,0.00,,,0.00,meteohub,2013-08-10 08:56:00,
2013-08-09 23:01:00,68.4,60.8,29.05,NE,45,1.0,2.0,77,0.00,,,0.00,meteohub,2013-08-10 09:01:00,
2013-08-09 23:06:00,68.4,60.8,29.05,NE,45,1.0,2.0,77,0.00,,,0.00,meteohub,2013-08-10 09:06:00,
2013-08-09 23:12:00,68.4,60.8,29.05,NE,45,2.0,2.0,77,0.00,,,0.00,meteohub,2013-08-10 09:12:00,
2013-08-09 23:17:00,68.2,60.6,29.05,NE,45,2.0,2.0,77,0.00,,,0.00,meteohub,2013-08-10 09:17:00,
2013-08-09 23:22:00,68.0,60.8,29.05,NE,45,1.0,2.0,78,0.00,,,0.00,meteohub,2013-08-10 09:22:00,
2013-08-09 23:27:00,67.8,60.6,29.05,NE,45,0.0,2.0,78,0.00,,,0.00,meteohub,2013-08-10 09:27:00,
2013-08-09 23:32:00,67.6,61.0,29.05,NE,45,1.0,2.0,79,0.00,,,0.00,meteohub,2013-08-10 09:32:00,
2013-08-09 23:37:00,67.5,60.4,29.05,NE,45,1.0,2.0,78,0.00,,,0.00,meteohub,2013-08-10 09:37:00,
2013-08-09 23:42:00,67.6,60.6,29.05,NE,45,0.0,2.0,78,0.00,,,0.00,meteohub,2013-08-10 09:42:00,
2013-08-09 23:47:00,67.6,60.3,29.04,NE,45,0.0,2.0,77,0.00,,,0.00,meteohub,2013-08-10 09:47:00,
2013-08-09 23:52:00,67.6,60.3,29.05,NE,45,0.0,2.0,77,0.00,,,0.00,meteohub,2013-08-10 09:52:00,
2013-08-09 23:57:00,67.8,60.3,29.05,NE,45,0.0,1.0,77,0.00,,,0.00,meteohub,2013-08-10 09:57:00,